Saturday, December 16, 2017, 9:27 PM EST
Back to Local

KSNC, Chester, Chester Airport

Location: Chester, CT, United States Lat: 41.384
Local Time: 9:27 PM EST ( 2:27 GMT) Lon: -72.506
Time Zone: US/Eastern Elev: 416 ft

Show me the last for .
Show Decoded

2017-12-16 21:15 METAR KSNC 170215Z AUTO 34005KT 10SM OVC038 M01/M07 A3014 RMK AO2 =
2017-12-16 20:55 METAR KSNC 170155Z AUTO 32006KT 10SM OVC034 M01/M07 A3014 RMK AO2 =
2017-12-16 20:35 METAR KSNC 170135Z AUTO 33006KT 10SM OVC030 M01/M07 A3013 RMK AO2 =
2017-12-16 20:15 METAR KSNC 170115Z AUTO 33007KT 10SM OVC027 M01/M07 A3012 RMK AO2 =
2017-12-16 19:55 METAR KSNC 170055Z AUTO 35006KT 10SM OVC028 M01/M06 A3011 RMK AO2 =
2017-12-16 19:35 METAR KSNC 170035Z AUTO VRB06G11KT 10SM -UP BKN028 BKN032 OVC070 M01/M05 A3009
                 RMK AO2 =
2017-12-16 19:15 METAR KSNC 170015Z AUTO 36007KT 10SM SCT030 OVC070 M00/M05 A3008 RMK AO2 =
2017-12-16 18:55 METAR KSNC 162355Z AUTO 29004G10KT 10SM SCT041 OVC075 00/M06 A3007 RMK AO2 =
2017-12-16 18:35 METAR KSNC 162335Z AUTO 29003KT 10SM BKN039 BKN045 BKN075 00/M06 A3006 RMK AO2 =
2017-12-16 18:15 METAR KSNC 162315Z AUTO 29004KT 10SM BKN090 M00/M06 A3005 RMK AO2 =
2017-12-16 17:55 METAR KSNC 162255Z AUTO 00000KT 10SM BKN090 00/M07 A3003 RMK AO2 =
2017-12-16 17:35 METAR KSNC 162235Z AUTO 00000KT 10SM BKN090 00/M07 A3001 RMK AO2 =
2017-12-16 17:15 METAR KSNC 162215Z AUTO 26004KT 10SM BKN090 00/M07 A3000 RMK AO2 =
2017-12-16 16:55 METAR KSNC 162155Z AUTO 27004KT 10SM FEW050 SCT095 00/M07 A2999 RMK AO2 =
2017-12-16 16:35 METAR KSNC 162135Z AUTO 25004KT 10SM FEW035 SCT044 SCT055 00/M07 A2998 RMK AO2 =
2017-12-16 16:15 METAR KSNC 162115Z AUTO 25005G12KT 10SM OVC035 01/M07 A2997 RMK AO2 =
2017-12-16 15:55 METAR KSNC 162055Z AUTO 25007KT 220V280 10SM OVC036 01/M07 A2996 RMK AO2 =
2017-12-16 15:35 METAR KSNC 162035Z AUTO VRB06KT 10SM BKN038 OVC045 01/M07 A2995 RMK AO2 =
2017-12-16 15:15 METAR KSNC 162015Z AUTO VRB06G13KT 10SM BKN037 BKN044 BKN055 01/M07 A2995 RMK
                 AO2 =
2017-12-16 14:55 METAR KSNC 161955Z AUTO 27006KT 10SM BKN037 BKN042 BKN060 02/M07 A2994 RMK AO2 =
2017-12-16 14:35 METAR KSNC 161935Z AUTO 25006KT 10SM 02/M07 A2993 RMK AO2 =
2017-12-16 14:15 METAR KSNC 161915Z AUTO VRB07G15KT 230V310 10SM SCT040 SCT046 02/M07 A2993 RMK
                 AO2 =
2017-12-16 13:55 METAR KSNC 161855Z AUTO 28007G12KT 230V310 10SM FEW036 FEW041 SCT048 01/M07
                 A2992 RMK AO2 =
2017-12-16 13:35 METAR KSNC 161835Z AUTO 25010G16KT 10SM SCT037 SCT048 BKN095 02/M08 A2993 RMK
                 AO2 =
2017-12-16 13:15 METAR KSNC 161815Z AUTO 27007G14KT 220V300 10SM FEW034 FEW040 SCT095 02/M08
                 A2993 RMK AO2 =
2017-12-16 12:15 METAR KSNC 161715Z AUTO 26007G15KT 220V300 10SM CLR 00/M08 A2995 RMK AO2 =
2017-12-16 11:55 METAR KSNC 161655Z AUTO 26007G16KT 220V290 10SM FEW065 FEW075 FEW085 00/M08
                 A2996 RMK AO2 =
2017-12-16 11:35 METAR KSNC 161635Z AUTO 26009G16KT 200V300 10SM CLR 00/M09 A2996 RMK AO2 =
2017-12-16 11:15 METAR KSNC 161615Z AUTO 26008G16KT 220V300 10SM CLR M00/M09 A2997 RMK AO2 =
2017-12-16 10:55 METAR KSNC 161555Z AUTO 28009G19KT 10SM FEW045 FEW110 M01/M09 A2998 RMK AO2 =
2017-12-16 10:35 METAR KSNC 161535Z AUTO 27008G16KT 10SM FEW085 M01/M09 A2999 RMK AO2 =
2017-12-16 10:15 METAR KSNC 161515Z AUTO 27008G16KT 230V310 10SM FEW095 M01/M09 A3000 RMK AO2 =
2017-12-16 09:55 METAR KSNC 161455Z AUTO 25010G21KT 210V280 10SM FEW100 M01/M09 A2999 RMK AO2 =
2017-12-16 09:35 METAR KSNC 161435Z AUTO 27009KT 240V300 10SM CLR M02/M09 A2999 RMK AO2 =
2017-12-16 09:15 METAR KSNC 161415Z AUTO 28009G15KT 10SM CLR M02/M09 A2998 RMK AO2 =
2017-12-16 08:55 METAR KSNC 161355Z AUTO 26006G13KT 10SM CLR M03/M09 A2997 RMK AO2 =
2017-12-16 08:35 METAR KSNC 161335Z AUTO VRB06KT 10SM CLR M04/M09 A2997 RMK AO2 =
2017-12-16 08:15 METAR KSNC 161315Z AUTO 26006G11KT 10SM CLR M05/M09 A2995 RMK AO2 =
2017-12-16 07:55 METAR KSNC 161255Z AUTO 26005KT 10SM CLR M05/M09 A2995 RMK AO2 =
2017-12-16 07:35 METAR KSNC 161235Z AUTO 26004KT 10SM CLR M06/M09 A2993 RMK AO2 =
2017-12-16 07:15 METAR KSNC 161215Z AUTO 26006KT 10SM CLR M06/M09 A2992 RMK AO2 =
2017-12-16 06:55 METAR KSNC 161155Z AUTO 24007KT 10SM CLR M06/M09 A2992 RMK AO2 =
2017-12-16 06:35 METAR KSNC 161135Z AUTO 26008KT 10SM CLR M06/M09 A2991 RMK AO2 =
2017-12-16 06:15 METAR KSNC 161115Z AUTO 27008KT 10SM CLR M06/M09 A2991 RMK AO2 =
2017-12-16 05:55 METAR KSNC 161055Z AUTO VRB06G13KT 10SM CLR M06/M09 A2990 RMK AO2 =
2017-12-16 05:35 METAR KSNC 161035Z AUTO 28007G12KT 250V310 10SM CLR M06/M09 A2989 RMK AO2 =
2017-12-16 05:15 METAR KSNC 161015Z AUTO 28006G12KT 10SM CLR M06/M09 A2988 RMK AO2 =
2017-12-16 04:55 METAR KSNC 160955Z AUTO 27007G13KT 10SM CLR M06/M09 A2987 RMK AO2 =
2017-12-16 04:35 METAR KSNC 160935Z AUTO 28007G15KT 10SM CLR M06/M09 A2987 RMK AO2 =
2017-12-16 04:15 METAR KSNC 160915Z AUTO VRB06G11KT 10SM CLR M06/M09 A2986 RMK AO2 =
2017-12-16 03:55 METAR KSNC 160855Z AUTO 27007KT 240V300 10SM CLR M06/M09 A2986 RMK AO2 =
2017-12-16 03:35 METAR KSNC 160835Z AUTO 27005G12KT 10SM CLR M06/M09 A2986 RMK AO2 =
2017-12-16 03:15 METAR KSNC 160815Z AUTO 28005KT 10SM CLR M06/M09 A2985 RMK AO2 =
2017-12-16 02:55 METAR KSNC 160755Z AUTO 28005KT 10SM CLR M07/M09 A2985 RMK AO2 =
2017-12-16 02:35 METAR KSNC 160735Z AUTO 28005G10KT 10SM CLR M07/M09 A2985 RMK AO2 =
2017-12-16 02:15 METAR KSNC 160715Z AUTO VRB04KT 10SM CLR M07/M09 A2985 RMK AO2 =
2017-12-16 01:55 METAR KSNC 160655Z AUTO 27005KT 10SM CLR M06/M09 A2984 RMK AO2 =
2017-12-16 01:35 METAR KSNC 160635Z AUTO 27005KT 10SM SCT075 M06/M08 A2983 RMK AO2 =
2017-12-16 01:15 METAR KSNC 160615Z AUTO VRB03KT 10SM BKN075 M06/M08 A2983 RMK AO2 =
2017-12-16 00:55 METAR KSNC 160555Z AUTO 27004G10KT 10SM SCT080 M06/M08 A2983 RMK AO2 =
2017-12-16 00:35 METAR KSNC 160535Z AUTO 28006KT 10SM BKN080 M06/M08 A2982 RMK AO2 =
2017-12-16 00:15 METAR KSNC 160515Z AUTO 28006KT 10SM BKN085 M06/M08 A2982 RMK AO2 =
2017-12-15 23:55 METAR KSNC 160455Z AUTO VRB04KT 10SM CLR M06/M08 A2982 RMK AO2 =
2017-12-15 23:35 METAR KSNC 160435Z AUTO 28004KT 10SM CLR M06/M08 A2983 RMK AO2 =
2017-12-15 22:55 METAR KSNC 160355Z AUTO VRB03KT 10SM FEW023 SCT095 M05/M07 A2984 RMK AO2 =
2017-12-15 22:35 METAR KSNC 160335Z AUTO 00000KT 10SM FEW019 SCT043 BKN095 M05/M07 A2984 RMK AO2
                 =
2017-12-15 22:15 METAR KSNC 160315Z AUTO 00000KT 9SM -SN FEW019 SCT029 BKN041 M05/M06 A2984 RMK
                 AO2 =
2017-12-15 21:55 METAR KSNC 160255Z AUTO 00000KT 5SM -SN SCT001 BKN030 OVC049 M05/M06 A2984 RMK
                 AO2 =
2017-12-15 21:35 METAR KSNC 160235Z AUTO 29004KT 2 1/2SM -SN BKN001 OVC010 M05/M06 A2984 RMK AO2
                 =

Support USWX by starting your Amazon purchase here.